createdAt,value
2018-09-11T00:01:41.580Z,101154.50
2018-09-11T00:04:09.603Z,101159.02
2018-09-11T00:06:37.616Z,101157.44
2018-09-11T00:09:08.697Z,101157.02
2018-09-11T00:11:36.691Z,101156.31
2018-09-11T00:14:04.776Z,101150.66
2018-09-11T00:16:32.784Z,101146.08
2018-09-11T00:19:00.855Z,101140.94
2018-09-11T00:21:28.918Z,101133.29
2018-09-11T00:23:56.991Z,101120.66
2018-09-11T00:26:25.015Z,101127.50
2018-09-11T00:28:54.186Z,101126.78
2018-09-11T00:31:22.288Z,101127.22
2018-09-11T00:33:50.292Z,101123.58
2018-09-11T00:36:18.312Z,101117.50
2018-09-11T00:38:46.344Z,101110.66
2018-09-11T00:41:14.348Z,101106.30
2018-09-11T00:43:42.573Z,101096.69
2018-09-11T00:46:10.629Z,101100.83
2018-09-11T00:48:38.631Z,101106.55
2018-09-11T00:51:06.729Z,101112.47
2018-09-11T00:53:34.777Z,101110.30
2018-09-11T00:56:02.828Z,101102.57
2018-09-11T00:58:30.857Z,101099.48
2018-09-11T01:00:58.876Z,101105.75
2018-09-11T01:03:26.892Z,101101.86
2018-09-11T01:05:54.944Z,101090.24
2018-09-11T01:08:22.980Z,101093.89
2018-09-11T01:10:51.006Z,101097.19
2018-09-11T01:13:19.010Z,101098.65
2018-09-11T01:15:47.045Z,101102.33
2018-09-11T01:18:15.068Z,101105.38
2018-09-11T01:20:43.232Z,101093.33
2018-09-11T01:23:11.217Z,101094.04
2018-09-11T01:25:39.259Z,101102.41
2018-09-11T01:28:07.345Z,101109.45
2018-09-11T01:30:35.383Z,101108.84
2018-09-11T01:33:03.418Z,101115.86
2018-09-11T01:35:31.431Z,101114.73
2018-09-11T01:37:59.505Z,101109.75
2018-09-11T01:40:27.640Z,101100.10
2018-09-11T01:42:55.645Z,101101.44
2018-09-11T01:45:23.660Z,101095.84
2018-09-11T01:47:51.671Z,101096.70
2018-09-11T01:50:19.687Z,101095.94
2018-09-11T01:52:47.748Z,101099.89
2018-09-11T01:55:15.751Z,101099.89
2018-09-11T01:57:43.755Z,101090.87
2018-09-11T02:00:16.435Z,101098.05
2018-09-11T02:02:44.589Z,101100.61
2018-09-11T02:05:12.612Z,101097.09
2018-09-11T02:07:41.549Z,101085.38
2018-09-11T02:10:09.584Z,101077.05
2018-09-11T02:12:37.650Z,101081.25
2018-09-11T02:15:05.992Z,101087.69
2018-09-11T02:17:34.036Z,101093.89
2018-09-11T02:20:02.076Z,101092.78
2018-09-11T02:22:30.129Z,101092.10
2018-09-11T02:24:58.286Z,101101.94
2018-09-11T02:27:26.320Z,101095.97
2018-09-11T02:29:54.324Z,101099.37
2018-09-11T02:32:22.467Z,101105.55
2018-09-11T02:34:50.501Z,101103.37
2018-09-11T02:37:18.520Z,101104.36
2018-09-11T02:39:46.560Z,101106.92
2018-09-11T02:42:14.717Z,101106.42
2018-09-11T02:44:42.904Z,101106.08
2018-09-11T02:47:11.347Z,101106.14
2018-09-11T02:49:39.417Z,101101.23
2018-09-11T02:52:07.487Z,101103.59
2018-09-11T02:54:35.589Z,101110.78
2018-09-11T02:57:03.700Z,101110.72
2018-09-11T02:59:31.835Z,101109.66
2018-09-11T03:01:59.825Z,101109.95
2018-09-11T03:04:27.835Z,101110.16
2018-09-11T03:06:55.990Z,101112.96
2018-09-11T03:09:24.089Z,101104.98
2018-09-11T03:11:52.105Z,101113.62
2018-09-11T03:14:20.160Z,101104.36
2018-09-11T03:16:48.105Z,101104.27
2018-09-11T03:19:16.140Z,101105.92
2018-09-11T03:21:44.237Z,101099.64
2018-09-11T03:24:12.288Z,101104.16
2018-09-11T03:26:40.351Z,101102.20
2018-09-11T03:29:08.432Z,101100.60
2018-09-11T03:31:36.571Z,101094.41
2018-09-11T03:34:04.592Z,101094.80
2018-09-11T03:36:32.624Z,101089.44
2018-09-11T03:39:00.652Z,101084.16
2018-09-11T03:41:28.753Z,101077.17
2018-09-11T03:43:56.804Z,101068.70
2018-09-11T03:46:24.816Z,101063.64
2018-09-11T03:48:52.824Z,101064.05
2018-09-11T03:51:20.904Z,101061.58
2018-09-11T03:53:48.983Z,101059.92
2018-09-11T03:56:16.960Z,101054.80
2018-09-11T03:58:45.091Z,101053.14
2018-09-11T04:01:13.097Z,101051.28
2018-09-11T04:03:41.201Z,101050.61
2018-09-11T04:06:09.190Z,101050.26
2018-09-11T04:08:37.209Z,101051.94
2018-09-11T04:11:05.349Z,101057.47
2018-09-11T04:13:33.399Z,101051.80
2018-09-11T04:16:01.443Z,101049.45
2018-09-11T04:18:29.442Z,101056.36
2018-09-11T04:20:57.493Z,101053.02
2018-09-11T04:23:25.528Z,101050.43
2018-09-11T04:25:53.538Z,101045.05
2018-09-11T04:28:21.545Z,101049.63
2018-09-11T04:30:49.564Z,101041.70
2018-09-11T04:33:17.875Z,101037.69
2018-09-11T04:35:45.914Z,101034.75
2018-09-11T04:38:13.901Z,101036.10
2018-09-11T04:40:41.905Z,101029.81
2018-09-11T04:43:09.956Z,101028.06
2018-09-11T04:45:37.949Z,101024.09
2018-09-11T04:48:06.005Z,101021.13
2018-09-11T04:50:34.093Z,101018.90
2018-09-11T04:53:02.121Z,101027.30
2018-09-11T04:55:30.133Z,101019.59
2018-09-11T04:57:58.150Z,101021.77
2018-09-11T05:00:27.250Z,101020.34
2018-09-11T05:02:55.356Z,101010.15
2018-09-11T05:05:23.514Z,101010.89
2018-09-11T05:07:51.553Z,101013.21
2018-09-11T05:10:19.576Z,101010.88
2018-09-11T05:12:47.577Z,101009.34
2018-09-11T05:15:15.577Z,101021.08
2018-09-11T05:17:43.581Z,101012.77
2018-09-11T05:20:11.577Z,101011.00
2018-09-11T05:22:39.633Z,101018.89
2018-09-11T05:25:07.664Z,101011.31
2018-09-11T05:27:35.728Z,101017.05
2018-09-11T05:30:05.513Z,101019.89
2018-09-11T05:32:33.549Z,101018.90
2018-09-11T05:35:01.594Z,101013.83
2018-09-11T05:37:29.645Z,101009.61
2018-09-11T05:39:57.747Z,101006.05
2018-09-11T05:42:26.021Z,101007.88
2018-09-11T05:44:54.069Z,101013.34
2018-09-11T05:47:22.091Z,101008.77
2018-09-11T05:49:50.120Z,101006.55
2018-09-11T05:52:18.169Z,101001.12
2018-09-11T05:54:46.240Z,100997.91
2018-09-11T05:57:14.297Z,100990.51
2018-09-11T05:59:42.413Z,101000.27
2018-09-11T06:02:10.426Z,101000.61
2018-09-11T06:04:38.420Z,101008.05
2018-09-11T06:07:06.527Z,101015.59
2018-09-11T06:09:34.561Z,101015.64
2018-09-11T06:12:02.689Z,101003.51
2018-09-11T06:14:30.726Z,101018.12
2018-09-11T06:16:58.845Z,101010.77
2018-09-11T06:19:26.851Z,101016.27
2018-09-11T06:21:54.852Z,101012.27
2018-09-11T06:24:22.873Z,101018.19
2018-09-11T06:26:50.997Z,101032.09
2018-09-11T06:29:19.158Z,101024.41
2018-09-11T06:31:47.043Z,101025.62
2018-09-11T06:34:15.108Z,101025.89
2018-09-11T06:36:43.120Z,101034.52
2018-09-11T06:39:11.799Z,101036.55
2018-09-11T06:41:40.056Z,101035.34
2018-09-11T06:44:08.113Z,101041.00
2018-09-11T06:46:36.134Z,101033.91
2018-09-11T06:49:04.677Z,101049.98
2018-09-11T06:51:32.906Z,101038.50
2018-09-11T06:54:01.404Z,101037.70
2018-09-11T06:56:29.559Z,101026.52
2018-09-11T06:58:57.680Z,101026.85
2018-09-11T07:01:25.897Z,101028.38
2018-09-11T07:03:53.923Z,101025.77
2018-09-11T07:06:22.138Z,101034.01
2018-09-11T07:08:50.232Z,101031.70
2018-09-11T07:11:18.360Z,101039.34
2018-09-11T07:13:46.421Z,101035.06
2018-09-11T07:16:14.439Z,101037.73
2018-09-11T07:18:42.456Z,101031.69
2018-09-11T07:21:10.531Z,101024.33
2018-09-11T07:23:38.517Z,101016.92
2018-09-11T07:26:06.717Z,101012.14
2018-09-11T07:28:34.816Z,101007.16
2018-09-11T07:31:02.843Z,101010.76
2018-09-11T07:33:30.830Z,101000.20
2018-09-11T07:35:58.877Z,101005.21
2018-09-11T07:38:26.904Z,101009.58
2018-09-11T07:40:54.913Z,101005.08
2018-09-11T07:43:22.924Z,101011.19
2018-09-11T07:45:51.089Z,101008.22
2018-09-11T07:48:19.177Z,101021.86
2018-09-11T07:50:47.217Z,101015.69
2018-09-11T07:53:15.248Z,101018.43
2018-09-11T07:55:43.340Z,101024.34
2018-09-11T07:58:11.412Z,101034.09
2018-09-11T08:00:39.413Z,101035.58
2018-09-11T08:03:07.671Z,101037.47
2018-09-11T08:05:35.673Z,101040.49
2018-09-11T08:08:03.721Z,101039.53
2018-09-11T08:10:31.772Z,101038.50
2018-09-11T08:12:59.844Z,101029.45
2018-09-11T08:15:28.123Z,101043.91
2018-09-11T08:17:56.216Z,101034.91
2018-09-11T08:20:24.252Z,101036.06
2018-09-11T08:22:52.285Z,101034.72
2018-09-11T08:25:20.335Z,101029.05
2018-09-11T08:27:48.363Z,101023.38
2018-09-11T08:30:16.501Z,101032.04
2018-09-11T08:32:44.590Z,101028.32
2018-09-11T08:35:12.631Z,101018.05
2018-09-11T08:37:40.661Z,101021.78
2018-09-11T08:40:08.702Z,101013.03
2018-09-11T08:42:36.721Z,101021.56
2018-09-11T08:45:04.921Z,101045.30
2018-09-11T08:47:33.019Z,101041.47
2018-09-11T08:50:01.072Z,101051.23
2018-09-11T08:52:29.146Z,101041.10
2018-09-11T08:54:57.188Z,101036.66
2018-09-11T08:57:25.216Z,101028.48
2018-09-11T08:59:53.390Z,101033.08
2018-09-11T09:02:21.441Z,101046.46
2018-09-11T09:04:49.616Z,101047.55
2018-09-11T09:07:17.625Z,101042.85
2018-09-11T09:09:45.793Z,101053.14
2018-09-11T09:12:13.796Z,101041.23
2018-09-11T09:14:41.796Z,101046.73
2018-09-11T09:17:09.796Z,101041.48
2018-09-11T09:19:37.921Z,101047.25
2018-09-11T09:22:05.977Z,101029.86
2018-09-11T09:24:34.096Z,101034.15
2018-09-11T09:27:02.299Z,101036.20
2018-09-11T09:29:30.368Z,101033.73
2018-09-11T09:31:58.498Z,101045.40
2018-09-11T09:34:26.634Z,101040.89
2018-09-11T09:36:54.717Z,101043.77
2018-09-11T09:39:22.703Z,101032.75
2018-09-11T09:41:50.769Z,101024.24
2018-09-11T09:44:18.818Z,101022.14
2018-09-11T09:46:46.910Z,101014.75
2018-09-11T09:49:15.277Z,101007.91
2018-09-11T09:51:43.343Z,101013.84
2018-09-11T09:54:11.373Z,101011.27
2018-09-11T09:56:39.628Z,101006.97
2018-09-11T09:59:07.689Z,101003.10
2018-09-11T10:01:41.193Z,101002.45
2018-09-11T10:04:09.330Z,100992.34
2018-09-11T10:06:37.388Z,100981.64
2018-09-11T10:09:07.772Z,100990.93
2018-09-11T10:11:35.886Z,100991.05
2018-09-11T10:14:03.855Z,100993.15
2018-09-11T10:16:31.864Z,100994.98
2018-09-11T10:18:59.988Z,101012.21
2018-09-11T10:21:28.008Z,101008.58
2018-09-11T10:23:56.106Z,101019.16
2018-09-11T10:26:24.302Z,101001.81
2018-09-11T10:28:52.473Z,100999.45
2018-09-11T10:31:20.505Z,100999.45
2018-09-11T10:33:48.705Z,101001.67
2018-09-11T10:36:16.810Z,101003.77
2018-09-11T10:38:44.916Z,101006.78
2018-09-11T10:41:13.026Z,101006.97
2018-09-11T10:43:41.327Z,101005.55
2018-09-11T10:46:09.304Z,100985.50
2018-09-11T10:48:37.431Z,100993.24
2018-09-11T10:51:05.420Z,101001.52
2018-09-11T10:53:33.473Z,101006.22
2018-09-11T10:56:01.538Z,101016.68
2018-09-11T10:58:29.580Z,101012.87
2018-09-11T11:00:57.640Z,101002.95
2018-09-11T11:03:26.480Z,101025.54
2018-09-11T11:05:54.744Z,101010.51
2018-09-11T11:08:22.900Z,100995.56
2018-09-11T11:10:51.039Z,101006.89
2018-09-11T11:13:19.062Z,100998.88
2018-09-11T11:15:47.117Z,100991.11
2018-09-11T11:18:15.168Z,100986.20
2018-09-11T11:20:43.209Z,100978.38
2018-09-11T11:23:11.233Z,100989.01
2018-09-11T11:25:39.263Z,100981.58
2018-09-11T11:28:07.291Z,100983.88
2018-09-11T11:30:35.344Z,100988.14
2018-09-11T11:33:03.574Z,100983.96
2018-09-11T11:35:31.569Z,100973.44
2018-09-11T11:37:59.655Z,100974.59
2018-09-11T11:40:27.691Z,100959.67
2018-09-11T11:42:55.773Z,100946.57
2018-09-11T11:45:23.825Z,100949.88
2018-09-11T11:47:51.850Z,100953.23
2018-09-11T11:50:19.913Z,100960.76
2018-09-11T11:52:47.993Z,100966.52
2018-09-11T11:55:16.169Z,100947.72
2018-09-11T11:57:44.097Z,100947.88
2018-09-11T12:00:12.174Z,100955.45
2018-09-11T12:02:40.266Z,100948.95
2018-09-11T12:05:08.332Z,100963.80
2018-09-11T12:07:36.421Z,100952.59
2018-09-11T12:10:04.457Z,100960.20
2018-09-11T12:12:32.564Z,100970.11
2018-09-11T12:15:00.608Z,100968.18
2018-09-11T12:17:28.772Z,100956.54
2018-09-11T12:19:56.852Z,100974.91
2018-09-11T12:22:24.925Z,100974.30
2018-09-11T12:24:53.030Z,100961.16
2018-09-11T12:27:21.087Z,100958.87
2018-09-11T12:29:49.221Z,100950.93
2018-09-11T12:32:17.309Z,100951.37
2018-09-11T12:34:45.336Z,100944.52
2018-09-11T12:37:13.410Z,100945.61
2018-09-11T12:39:41.537Z,100946.41
2018-09-11T12:42:10.000Z,100950.13
2018-09-11T12:44:38.047Z,100940.95
2018-09-11T12:47:06.927Z,100957.48
2018-09-11T12:49:34.784Z,100959.27
2018-09-11T12:52:02.785Z,100953.96
2018-09-11T12:54:30.809Z,100954.95
2018-09-11T12:56:58.826Z,100954.77
2018-09-11T12:59:26.873Z,100954.60
2018-09-11T13:01:54.867Z,100949.92
2018-09-11T13:04:22.970Z,100950.02
2018-09-11T13:06:50.998Z,100942.17
2018-09-11T13:09:19.058Z,100940.56
2018-09-11T13:11:47.240Z,100941.31
2018-09-11T13:14:15.307Z,100931.64
2018-09-11T13:16:43.303Z,100949.01
2018-09-11T13:19:11.308Z,100948.80
2018-09-11T13:21:39.314Z,100947.45
2018-09-11T13:24:07.344Z,100938.72
2018-09-11T13:26:35.377Z,100937.76
2018-09-11T13:29:03.460Z,100947.11
2018-09-11T13:31:31.513Z,100937.08
2018-09-11T13:33:59.770Z,100933.66
2018-09-11T13:36:27.833Z,100935.65
2018-09-11T13:38:56.025Z,100930.11
2018-09-11T13:41:24.090Z,100929.53
2018-09-11T13:43:52.108Z,100922.44
2018-09-11T13:46:20.251Z,100924.81
2018-09-11T13:48:48.261Z,100918.26
2018-09-11T13:51:16.420Z,100919.23
2018-09-11T13:53:44.668Z,100916.71
2018-09-11T13:56:12.925Z,100918.72
2018-09-11T13:58:41.305Z,100912.84
2018-09-11T14:01:09.595Z,100913.89
2018-09-11T14:03:38.016Z,100919.03
2018-09-11T14:06:06.322Z,100921.15
2018-09-11T14:08:34.632Z,100924.50
2018-09-11T14:11:03.036Z,100926.44
2018-09-11T14:13:31.287Z,100918.00
2018-09-11T14:15:59.582Z,100928.36
2018-09-11T14:18:27.701Z,100921.03
2018-09-11T14:20:55.875Z,100914.27
2018-09-11T14:23:23.961Z,100918.79
2018-09-11T14:25:52.188Z,100915.20
2018-09-11T14:28:20.360Z,100919.66
2018-09-11T14:30:48.384Z,100918.91
2018-09-11T14:33:16.442Z,100920.91
2018-09-11T14:35:44.550Z,100918.96
2018-09-11T14:38:12.670Z,100909.39
2018-09-11T14:40:40.728Z,100914.98
2018-09-11T14:43:08.728Z,100915.35
2018-09-11T14:45:36.860Z,100926.92
2018-09-11T14:48:05.038Z,100925.33
2018-09-11T14:50:33.061Z,100907.58
2018-09-11T14:53:01.137Z,100903.98
2018-09-11T14:55:29.253Z,100906.14
2018-09-11T14:57:57.282Z,100915.13
2018-09-11T15:00:25.480Z,100915.40
2018-09-11T15:02:53.761Z,100927.05
2018-09-11T15:05:21.785Z,100925.51
2018-09-11T15:07:49.860Z,100927.33
2018-09-11T15:10:17.961Z,100928.92
2018-09-11T15:12:46.057Z,100925.77
2018-09-11T15:15:15.225Z,100931.63
2018-09-11T15:17:43.192Z,100923.80
2018-09-11T15:20:11.279Z,100929.75
2018-09-11T15:22:39.424Z,100922.27
2018-09-11T15:25:07.510Z,100929.22
2018-09-11T15:27:35.601Z,100919.03
2018-09-11T15:30:04.954Z,100915.68
2018-09-11T15:32:32.940Z,100917.56
2018-09-11T15:35:00.947Z,100914.72
2018-09-11T15:37:29.028Z,100922.19
2018-09-11T15:39:57.073Z,100918.66
2018-09-11T15:42:25.086Z,100925.30
2018-09-11T15:44:53.089Z,100923.58
2018-09-11T15:47:21.145Z,100931.05
2018-09-11T15:49:49.189Z,100925.45
2018-09-11T15:52:17.312Z,100923.84
2018-09-11T15:54:45.306Z,100919.70
2018-09-11T15:57:13.329Z,100920.67
2018-09-11T15:59:41.369Z,100919.45
2018-09-11T16:02:09.395Z,100925.27
2018-09-11T16:04:37.404Z,100927.36
2018-09-11T16:07:05.438Z,100923.89
2018-09-11T16:09:33.477Z,100927.09
2018-09-11T16:12:01.497Z,100923.83
2018-09-11T16:14:29.529Z,100926.36
2018-09-11T16:16:57.637Z,100911.05
2018-09-11T16:19:25.678Z,100917.44
2018-09-11T16:21:53.705Z,100914.22
2018-09-11T16:24:21.722Z,100914.73
2018-09-11T16:26:49.734Z,100923.08
2018-09-11T16:29:17.768Z,100924.31
2018-09-11T16:31:45.780Z,100927.99
2018-09-11T16:34:14.061Z,100931.17
2018-09-11T16:36:42.150Z,100932.67
2018-09-11T16:39:11.957Z,100926.45
2018-09-11T16:41:40.136Z,100921.59
2018-09-11T16:44:08.180Z,100925.09
2018-09-11T16:46:36.510Z,100926.91
2018-09-11T16:49:04.548Z,100924.02
2018-09-11T16:51:32.669Z,100929.39
2018-09-11T16:54:00.691Z,100924.67
2018-09-11T16:56:28.769Z,100922.80
2018-09-11T16:58:56.889Z,100922.48
2018-09-11T17:01:24.881Z,100932.31
2018-09-11T17:03:52.946Z,100923.42
2018-09-11T17:06:20.964Z,100921.53
2018-09-11T17:08:50.056Z,100924.98
2018-09-11T17:11:18.091Z,100924.34
2018-09-11T17:13:46.163Z,100920.23
2018-09-11T17:16:14.172Z,100922.30
2018-09-11T17:18:42.233Z,100929.09
2018-09-11T17:21:10.305Z,100912.41
2018-09-11T17:23:38.385Z,100917.33
2018-09-11T17:26:06.401Z,100910.59
2018-09-11T17:28:34.501Z,100908.23
2018-09-11T17:31:03.034Z,100916.95
2018-09-11T17:33:31.244Z,100921.87
2018-09-11T17:35:59.437Z,100932.64
2018-09-11T17:38:27.729Z,100927.88
2018-09-11T17:40:55.825Z,100920.55
2018-09-11T17:43:24.088Z,100924.86
2018-09-11T17:45:52.492Z,100932.11
2018-09-11T17:48:20.937Z,100932.11
2018-09-11T17:50:49.134Z,100930.12
2018-09-11T17:53:17.257Z,100934.37
2018-09-11T17:55:45.416Z,100935.59
2018-09-11T17:58:13.469Z,100938.62
2018-09-11T18:00:42.120Z,100940.28
2018-09-11T18:03:10.183Z,100940.59
2018-09-11T18:05:38.343Z,100947.41
2018-09-11T18:08:06.549Z,100954.14
2018-09-11T18:10:34.645Z,100955.55
2018-09-11T18:13:02.681Z,100954.67
2018-09-11T18:15:30.756Z,100958.63
2018-09-11T18:17:58.836Z,100966.20
2018-09-11T18:20:26.840Z,100961.22
2018-09-11T18:22:56.030Z,100966.78
2018-09-11T18:25:24.142Z,100966.05
2018-09-11T18:27:52.181Z,100974.90
2018-09-11T18:30:20.257Z,100974.01
2018-09-11T18:32:48.272Z,100965.38
2018-09-11T18:35:16.331Z,100970.38
2018-09-11T18:37:44.381Z,100965.91
2018-09-11T18:40:12.449Z,100966.62
2018-09-11T18:42:40.478Z,100971.78
2018-09-11T18:45:08.552Z,100979.19
2018-09-11T18:47:36.694Z,100987.97
2018-09-11T18:50:04.819Z,100979.56
2018-09-11T18:52:32.879Z,100981.58
2018-09-11T18:55:01.049Z,100988.23
2018-09-11T18:57:29.091Z,100993.73
2018-09-11T18:59:57.212Z,100991.56
2018-09-11T19:02:25.288Z,100990.36
2018-09-11T19:04:54.329Z,100992.69
2018-09-11T19:07:22.425Z,100998.16
2018-09-11T19:09:51.457Z,101002.56
2018-09-11T19:12:19.477Z,100998.88
2018-09-11T19:14:47.675Z,100999.97
2018-09-11T19:17:15.887Z,100996.17
2018-09-11T19:19:43.991Z,101000.14
2018-09-11T19:22:12.135Z,101001.31
2018-09-11T19:24:40.300Z,100996.19
2018-09-11T19:27:09.400Z,100997.13
2018-09-11T19:29:37.560Z,100993.17
2018-09-11T19:32:05.569Z,100989.39
2018-09-11T19:34:33.708Z,100990.42
2018-09-11T19:37:01.861Z,100993.69
2018-09-11T19:39:29.909Z,100988.75
2018-09-11T19:41:57.969Z,100994.47
2018-09-11T19:44:26.107Z,100995.55
2018-09-11T19:46:54.249Z,100993.25
2018-09-11T19:49:22.333Z,100991.22
2018-09-11T19:51:50.346Z,100991.58
2018-09-11T19:54:18.408Z,100993.41
2018-09-11T19:56:46.472Z,100993.73
2018-09-11T19:59:14.712Z,100986.81
2018-09-11T20:01:42.736Z,100986.30
2018-09-11T20:04:10.803Z,100991.50
2018-09-11T20:06:38.884Z,100993.60
2018-09-11T20:09:09.548Z,101002.02
2018-09-11T20:11:37.682Z,100995.80
2018-09-11T20:14:06.281Z,101000.98
2018-09-11T20:16:34.583Z,100995.97
2018-09-11T20:19:02.820Z,100997.81
2018-09-11T20:21:30.864Z,100995.75
2018-09-11T20:23:59.048Z,100998.64
2018-09-11T20:26:27.133Z,101006.30
2018-09-11T20:28:55.439Z,101000.24
2018-09-11T20:31:23.557Z,100998.67
2018-09-11T20:33:51.978Z,101002.55
2018-09-11T20:36:20.232Z,100997.31
2018-09-11T20:38:48.261Z,100999.05
2018-09-11T20:41:16.346Z,100999.02
2018-09-11T20:43:44.453Z,100998.37
2018-09-11T20:46:12.456Z,100998.36
2018-09-11T20:48:40.541Z,100993.98
2018-09-11T20:51:09.003Z,100983.55
2018-09-11T20:53:37.305Z,100978.47
2018-09-11T20:56:05.383Z,100986.23
2018-09-11T20:58:33.468Z,100978.50
2018-09-11T21:01:01.656Z,100980.50
2018-09-11T21:03:29.672Z,100984.22
2018-09-11T21:05:57.745Z,100985.57
2018-09-11T21:08:25.880Z,100985.73
2018-09-11T21:10:54.071Z,100983.36
2018-09-11T21:13:22.164Z,100976.31
2018-09-11T21:15:50.420Z,100985.39
2018-09-11T21:18:19.626Z,100980.21
2018-09-11T21:20:47.660Z,100990.47
2018-09-11T21:23:15.931Z,100987.39
2018-09-11T21:25:44.080Z,100983.19
2018-09-11T21:28:12.190Z,100982.86
2018-09-11T21:30:40.258Z,100977.81
2018-09-11T21:33:08.298Z,100983.19
2018-09-11T21:35:36.373Z,100979.16
2018-09-11T21:38:04.408Z,100980.86
2018-09-11T21:40:32.483Z,100983.36
2018-09-11T21:43:00.513Z,100982.20
2018-09-11T21:45:28.569Z,100984.72
2018-09-11T21:47:56.589Z,100982.84
2018-09-11T21:50:24.581Z,100981.50
2018-09-11T21:52:52.668Z,100983.88
2018-09-11T21:55:20.701Z,100979.86
2018-09-11T21:57:48.728Z,100979.16
2018-09-11T22:00:16.901Z,100973.46
2018-09-11T22:02:44.941Z,100973.46
2018-09-11T22:05:12.984Z,100979.01
2018-09-11T22:07:41.016Z,100969.05
2018-09-11T22:10:10.003Z,100964.50
2018-09-11T22:12:38.013Z,100975.46
2018-09-11T22:15:06.339Z,100972.59
2018-09-11T22:17:34.544Z,100968.06
2018-09-11T22:20:02.612Z,100970.78
2018-09-11T22:22:30.678Z,100972.77
2018-09-11T22:24:58.819Z,100978.83
2018-09-11T22:27:26.816Z,100968.05
2018-09-11T22:29:54.937Z,100980.98
2018-09-11T22:32:23.065Z,100973.22
2018-09-11T22:34:51.088Z,100972.27
2018-09-11T22:37:19.206Z,100973.77
2018-09-11T22:39:47.220Z,100973.04
2018-09-11T22:42:15.303Z,100970.55
2018-09-11T22:44:43.313Z,100971.06
2018-09-11T22:47:11.369Z,100967.34
2018-09-11T22:49:39.384Z,100959.63
2018-09-11T22:52:07.541Z,100959.42
2018-09-11T22:54:35.565Z,100961.63
2018-09-11T22:57:03.612Z,100963.00
2018-09-11T22:59:31.729Z,100967.69
2018-09-11T23:01:59.753Z,100953.55
2018-09-11T23:04:28.003Z,100958.11
2018-09-11T23:06:56.013Z,100954.75
2018-09-11T23:09:24.061Z,100955.27
2018-09-11T23:11:52.140Z,100955.91
2018-09-11T23:14:20.249Z,100954.91
2018-09-11T23:16:48.368Z,100949.35
2018-09-11T23:19:16.548Z,100957.92
2018-09-11T23:21:44.553Z,100951.70
2018-09-11T23:24:12.632Z,100953.89
2018-09-11T23:26:40.647Z,100951.70
2018-09-11T23:29:08.680Z,100955.42
2018-09-11T23:31:36.721Z,100956.41
2018-09-11T23:34:04.749Z,100956.07
2018-09-11T23:36:32.749Z,100960.45
2018-09-11T23:39:00.893Z,100961.12
2018-09-11T23:41:28.941Z,100952.88
2018-09-11T23:43:57.064Z,100953.20
2018-09-11T23:46:25.089Z,100950.68
2018-09-11T23:48:53.117Z,100947.66
2018-09-11T23:51:21.218Z,100944.61
2018-09-11T23:53:49.226Z,100944.46
2018-09-11T23:56:17.263Z,100942.26
2018-09-11T23:58:45.324Z,100940.75
